Time;durP1;ratioP1;P1;durP2;ratioP2;P2;SDS_P1;SDS_P2;PMS_P1;PMS_P2;Temp;Humidity;BMP_temperature;BMP_pressure;BME280_temperature;BME280_humidity;BME280_pressure;Samples;Min_cycle;Max_cycle;Signal;HPM_P1;HPM_P2
2021/04/17 00:01:06;;;;;;;10.57;5.07;;;6.90;74.00;;;;;;5053252;28;20017;-75
2021/04/17 00:03:31;;;;;;;8.35;3.63;;;6.80;72.80;;;;;;5053054;28;20098;-76
2021/04/17 00:05:57;;;;;;;11.15;4.10;;;6.80;72.80;;;;;;5054340;28;20078;-76
2021/04/17 00:08:22;;;;;;;9.65;4.78;;;6.70;73.40;;;;;;5054431;28;20043;-75
2021/04/17 00:10:48;;;;;;;11.15;3.63;;;6.80;73.00;;;;;;5054506;28;20052;-75
2021/04/17 00:13:14;;;;;;;5.85;2.70;;;6.70;72.40;;;;;;5054202;28;20436;-76
2021/04/17 00:15:39;;;;;;;14.57;6.18;;;6.70;74.10;;;;;;5054423;28;20029;-76
2021/04/17 00:18:05;;;;;;;8.13;3.75;;;6.70;72.60;;;;;;5054319;28;20083;-75
2021/04/17 00:20:31;;;;;;;9.18;4.15;;;6.70;73.60;;;;;;5053929;28;20028;-76
2021/04/17 00:22:57;;;;;;;10.57;5.05;;;6.70;73.50;;;;;;5052927;28;20465;-76
2021/04/17 00:25:22;;;;;;;10.30;3.97;;;6.60;71.80;;;;;;5053937;28;20026;-76
2021/04/17 00:27:48;;;;;;;10.20;5.00;;;6.60;71.90;;;;;;5052862;28;20025;-76
2021/04/17 00:30:14;;;;;;;13.02;4.65;;;6.60;72.30;;;;;;5052235;28;20473;-76
2021/04/17 00:32:40;;;;;;;10.63;4.93;;;6.60;72.90;;;;;;5054014;28;20461;-76
2021/04/17 00:35:06;;;;;;;6.43;3.10;;;6.60;73.20;;;;;;5052825;28;20131;-75
2021/04/17 00:37:31;;;;;;;10.50;3.90;;;6.60;73.20;;;;;;5053779;28;20067;-76
2021/04/17 00:39:57;;;;;;;5.72;3.20;;;6.50;73.20;;;;;;5053718;28;20049;-76
2021/04/17 00:42:22;;;;;;;14.38;5.78;;;6.50;74.20;;;;;;5052402;28;20021;-77
2021/04/17 00:44:48;;;;;;;8.48;2.92;;;6.40;72.80;;;;;;5052489;28;20107;-76
2021/04/17 00:47:15;;;;;;;10.45;3.65;;;6.50;74.70;;;;;;5052088;28;20066;-75
2021/04/17 00:49:40;;;;;;;3.97;1.52;;;6.40;74.80;;;;;;5052432;28;20025;-76
2021/04/17 00:52:06;;;;;;;6.53;2.72;;;6.40;75.60;;;;;;5053933;28;20166;-76
2021/04/17 00:54:32;;;;;;;10.50;5.78;;;6.40;75.20;;;;;;5052326;28;20017;-76
2021/04/17 00:56:58;;;;;;;6.65;3.42;;;6.40;74.50;;;;;;5052198;28;20095;-76
2021/04/17 00:59:23;;;;;;;7.05;3.42;;;6.30;74.40;;;;;;5051990;28;20171;-75
2021/04/17 01:01:49;;;;;;;10.07;4.15;;;6.30;75.20;;;;;;5053163;28;20492;-75
2021/04/17 01:04:33;;;;;;;5.97;2.92;;;6.30;73.70;;;;;;5052977;28;20070;-75
2021/04/17 01:07:10;;;;;;;5.68;2.65;;;6.30;73.70;;;;;;5051829;28;20010;-76
2021/04/17 01:09:43;;;;;;;9.10;4.35;;;6.20;75.40;;;;;;5051820;28;20060;-75
2021/04/17 01:12:15;;;;;;;8.32;3.42;;;6.20;75.30;;;;;;5053141;28;20047;-75
2021/04/17 01:14:43;;;;;;;10.32;4.38;;;6.20;75.80;;;;;;5053374;28;20020;-76
2021/04/17 01:17:11;;;;;;;7.35;3.92;;;6.20;74.90;;;;;;5051926;28;20016;-76
2021/04/17 01:19:39;;;;;;;6.55;2.60;;;6.20;76.40;;;;;;5053340;28;20048;-76
2021/04/17 01:22:10;;;;;;;6.85;3.45;;;6.20;75.90;;;;;;5053011;28;20024;-76
2021/04/17 01:24:40;;;;;;;4.65;2.22;;;6.10;75.80;;;;;;5051293;28;20013;-76
2021/04/17 01:27:07;;;;;;;6.30;2.72;;;6.10;76.40;;;;;;5053031;28;20082;-75
2021/04/17 01:29:39;;;;;;;8.85;4.38;;;6.10;76.70;;;;;;5052716;28;20539;-76
2021/04/17 01:32:10;;;;;;;7.38;3.20;;;6.10;75.00;;;;;;5051658;28;20017;-76
2021/04/17 01:34:36;;;;;;;8.95;2.10;;;6.00;74.90;;;;;;5052718;28;20048;-75
2021/04/17 01:37:02;;;;;;;9.65;3.63;;;6.00;77.30;;;;;;5051824;28;20070;-76
2021/04/17 01:39:29;;;;;;;9.05;3.05;;;6.00;75.80;;;;;;5052774;28;20017;-75
2021/04/17 01:42:01;;;;;;;7.32;3.28;;;5.90;76.80;;;;;;5051667;28;20028;-76
2021/04/17 01:44:28;;;;;;;9.27;4.18;;;6.00;77.00;;;;;;5052822;28;20024;-76
2021/04/17 01:47:04;;;;;;;18.60;5.05;;;5.90;76.40;;;;;;5051262;28;20028;-75
2021/04/17 01:49:32;;;;;;;9.52;3.83;;;5.90;77.00;;;;;;5052479;28;20496;-76
2021/04/17 01:52:00;;;;;;;11.18;3.95;;;5.90;76.70;;;;;;5051382;28;20460;-75
2021/04/17 01:54:36;;;;;;;10.40;4.13;;;5.80;76.20;;;;;;5052046;28;20412;-75
2021/04/17 01:57:04;;;;;;;8.80;2.67;;;5.80;76.00;;;;;;5051071;28;20021;-76
2021/04/17 01:59:33;;;;;;;7.50;2.85;;;5.80;78.30;;;;;;5050312;28;20137;-74
2021/04/17 02:01:59;;;;;;;7.77;3.73;;;5.80;77.90;;;;;;5052519;28;20046;-75
2021/04/17 02:04:24;;;;;;;8.02;3.53;;;5.70;76.60;;;;;;5052209;28;20021;-75
2021/04/17 02:06:50;;;;;;;9.52;5.55;;;5.70;78.40;;;;;;5051256;28;20021;-75
2021/04/17 02:09:15;;;;;;;5.28;2.40;;;5.70;77.50;;;;;;5050837;28;20033;-75
2021/04/17 02:11:41;;;;;;;11.38;4.07;;;5.70;78.60;;;;;;5052144;28;20029;-75
2021/04/17 02:14:07;;;;;;;11.18;4.95;;;5.70;78.40;;;;;;5052097;28;20024;-75
2021/04/17 02:16:47;;;;;;;10.45;5.07;;;5.60;77.20;;;;;;5050785;28;20013;-76
2021/04/17 02:19:26;;;;;;;10.82;4.45;;;5.60;77.20;;;;;;5050932;28;20075;-76
2021/04/17 02:21:56;;;;;;;7.28;2.75;;;5.60;77.40;;;;;;5051844;28;20370;-76
2021/04/17 02:24:22;;;;;;;4.50;1.60;;;5.50;77.40;;;;;;5051765;28;20433;-76
2021/04/17 02:26:48;;;;;;;8.88;3.47;;;5.60;79.40;;;;;;5050957;28;20060;-76
2021/04/17 02:29:13;;;;;;;8.48;4.30;;;5.50;78.30;;;;;;5050638;28;20037;-75
2021/04/17 02:31:39;;;;;;;11.77;4.78;;;5.50;77.60;;;;;;5051780;28;20101;-75
2021/04/17 02:34:04;;;;;;;11.68;4.60;;;5.40;76.90;;;;;;5051958;28;20025;-76
2021/04/17 02:36:30;;;;;;;12.05;4.57;;;5.40;77.50;;;;;;5051998;28;20029;-76
2021/04/17 02:38:56;;;;;;;8.65;3.75;;;5.40;76.80;;;;;;5050786;28;20453;-75
2021/04/17 02:41:21;;;;;;;12.18;3.53;;;5.30;76.80;;;;;;5050555;28;20016;-76
2021/04/17 02:43:47;;;;;;;11.35;5.35;;;5.30;77.70;;;;;;5050791;28;20343;-76
2021/04/17 02:46:13;;;;;;;8.60;3.63;;;5.30;77.60;;;;;;5050767;28;20090;-76
2021/04/17 02:48:40;;;;;;;3.97;1.85;;;5.30;78.10;;;;;;5050454;28;20032;-75
2021/04/17 02:51:06;;;;;;;11.70;4.72;;;5.30;79.80;;;;;;5052007;28;20017;-76
2021/04/17 02:53:32;;;;;;;10.18;4.15;;;5.30;78.50;;;;;;5051784;28;20067;-76
2021/04/17 02:55:58;;;;;;;11.82;4.65;;;5.20;78.80;;;;;;5051754;28;20102;-76
2021/04/17 02:58:24;;;;;;;9.25;3.08;;;5.20;78.10;;;;;;5051650;28;20079;-76
2021/04/17 03:00:49;;;;;;;14.52;5.22;;;5.20;79.50;;;;;;5052178;28;20032;-76
2021/04/17 03:03:15;;;;;;;11.20;4.35;;;5.20;78.20;;;;;;5050557;28;20361;-76
2021/04/17 03:05:41;;;;;;;14.20;4.88;;;5.20;78.10;;;;;;5051487;28;20021;-76
2021/04/17 03:08:07;;;;;;;6.95;3.22;;;5.10;78.60;;;;;;5050590;28;20116;-76
2021/04/17 03:10:35;;;;;;;18.98;5.38;;;5.20;80.10;;;;;;5052419;28;20021;-76
2021/04/17 03:13:01;;;;;;;13.65;4.70;;;5.10;79.60;;;;;;5055599;28;20040;-76
2021/04/17 03:15:27;;;;;;;12.40;4.90;;;5.10;79.30;;;;;;5054013;28;20467;-75
2021/04/17 03:17:52;;;;;;;11.05;4.15;;;5.10;79.30;;;;;;5054204;28;20115;-75
2021/04/17 03:20:18;;;;;;;8.68;4.45;;;5.00;79.60;;;;;;5054201;28;20027;-75
2021/04/17 03:22:44;;;;;;;11.20;4.75;;;5.00;80.10;;;;;;5053955;28;20021;-76
2021/04/17 03:25:11;;;;;;;11.77;4.38;;;5.00;80.30;;;;;;5055351;28;20067;-76
2021/04/17 03:27:38;;;;;;;9.00;4.20;;;5.00;80.50;;;;;;5055062;28;20025;-76
2021/04/17 03:30:09;;;;;;;7.32;3.67;;;5.00;81.30;;;;;;5055683;28;20017;-75
2021/04/17 03:32:35;;;;;;;12.05;4.88;;;5.00;81.30;;;;;;5053843;28;20017;-75
2021/04/17 03:35:02;;;;;;;11.70;5.38;;;5.00;81.00;;;;;;5053818;28;20025;-75
2021/04/17 03:37:27;;;;;;;6.60;2.42;;;5.00;81.10;;;;;;5054730;28;20103;-76
2021/04/17 03:39:53;;;;;;;5.72;2.20;;;5.00;82.20;;;;;;5054818;28;20472;-76
2021/04/17 03:42:19;;;;;;;9.90;4.07;;;5.00;82.50;;;;;;5055175;28;20021;-76
2021/04/17 03:44:44;;;;;;;9.30;3.17;;;5.00;82.20;;;;;;5054506;28;20029;-76
2021/04/17 03:47:10;;;;;;;10.25;3.92;;;5.00;82.20;;;;;;5054582;28;20362;-76
2021/04/17 03:49:35;;;;;;;11.80;4.63;;;5.00;82.00;;;;;;5053483;28;20442;-76
2021/04/17 03:52:01;;;;;;;11.48;4.30;;;5.00;82.20;;;;;;5053564;28;20021;-76
2021/04/17 03:54:27;;;;;;;11.88;4.50;;;4.90;82.40;;;;;;5053307;28;20017;-76
2021/04/17 03:56:52;;;;;;;7.60;2.67;;;5.00;83.40;;;;;;5053413;28;20084;-75
2021/04/17 03:59:18;;;;;;;9.02;3.83;;;5.00;82.30;;;;;;5053114;28;20025;-75
2021/04/17 04:01:43;;;;;;;5.28;2.33;;;4.90;82.40;;;;;;5053249;28;20019;-76
2021/04/17 04:04:09;;;;;;;9.82;3.67;;;5.00;83.00;;;;;;5053575;28;20354;-76
2021/04/17 04:06:35;;;;;;;13.18;3.80;;;5.00;82.60;;;;;;5053989;28;20056;-75
2021/04/17 04:09:00;;;;;;;14.30;4.55;;;5.00;82.70;;;;;;5055530;28;20072;-75
2021/04/17 04:11:27;;;;;;;11.45;4.63;;;5.00;82.20;;;;;;5054839;28;20025;-76
2021/04/17 04:13:53;;;;;;;12.77;5.00;;;5.00;82.20;;;;;;5054451;28;20086;-76
2021/04/17 04:16:18;;;;;;;8.48;4.78;;;4.90;82.10;;;;;;5054127;28;20405;-74
2021/04/17 04:18:44;;;;;;;9.02;4.30;;;4.90;82.10;;;;;;5052537;28;20074;-76
2021/04/17 04:21:09;;;;;;;11.88;4.07;;;4.90;82.40;;;;;;5054254;28;20457;-75
2021/04/17 04:23:35;;;;;;;10.05;4.35;;;4.90;82.20;;;;;;5053312;28;20079;-76
2021/04/17 04:26:01;;;;;;;12.27;4.30;;;4.90;82.70;;;;;;5053007;28;20046;-75
2021/04/17 04:28:27;;;;;;;11.88;5.25;;;4.80;82.60;;;;;;5053908;28;20343;-77
2021/04/17 04:30:52;;;;;;;13.23;5.30;;;4.80;82.60;;;;;;5052522;28;20020;-76
2021/04/17 04:33:18;;;;;;;17.67;5.32;;;4.80;82.60;;;;;;5053793;28;20025;-76
2021/04/17 04:35:43;;;;;;;8.25;4.03;;;4.80;82.50;;;;;;5053528;28;20021;-75
2021/04/17 04:38:09;;;;;;;3.55;1.80;;;4.80;82.70;;;;;;5052744;28;20024;-75
2021/04/17 04:40:35;;;;;;;10.13;4.88;;;4.90;83.70;;;;;;5053664;28;20027;-75
2021/04/17 04:43:00;;;;;;;8.70;3.72;;;4.90;83.00;;;;;;5052601;28;20013;-75
2021/04/17 04:45:27;;;;;;;11.93;3.90;;;4.90;83.20;;;;;;5052471;28;20017;-76
2021/04/17 04:47:53;;;;;;;9.32;4.28;;;5.00;82.90;;;;;;5053410;28;20106;-76
2021/04/17 04:50:18;;;;;;;11.88;4.72;;;5.00;83.00;;;;;;5052304;28;20449;-75
2021/04/17 04:52:44;;;;;;;9.45;4.30;;;5.00;82.60;;;;;;5053103;28;20531;-75
2021/04/17 04:55:10;;;;;;;12.40;5.35;;;5.00;82.70;;;;;;5053302;28;20032;-75
2021/04/17 04:57:35;;;;;;;8.05;3.05;;;5.00;82.50;;;;;;5051930;28;20212;-75
2021/04/17 05:00:01;;;;;;;8.15;4.05;;;5.00;82.60;;;;;;5053529;28;20024;-75
2021/04/17 05:02:27;;;;;;;10.95;4.22;;;5.00;82.80;;;;;;5053611;28;20095;-76
2021/04/17 05:04:52;;;;;;;9.25;3.83;;;5.00;82.70;;;;;;5052080;28;20476;-76
2021/04/17 05:07:18;;;;;;;6.30;2.45;;;5.00;82.90;;;;;;5051967;28;20096;-76
2021/04/17 05:09:43;;;;;;;6.80;2.90;;;5.10;83.20;;;;;;5051807;28;20041;-76
2021/04/17 05:12:09;;;;;;;6.88;2.78;;;5.10;83.00;;;;;;5051736;28;20071;-76
2021/04/17 05:14:35;;;;;;;11.30;3.90;;;5.10;83.10;;;;;;5053125;28;20013;-75
2021/04/17 05:17:01;;;;;;;8.75;3.85;;;5.20;82.80;;;;;;5053204;28;20124;-75
2021/04/17 05:19:27;;;;;;;5.80;2.30;;;5.20;82.60;;;;;;5052961;28;20101;-76
2021/04/17 05:21:52;;;;;;;10.27;4.90;;;5.30;82.60;;;;;;5051539;28;20029;-76
2021/04/17 05:24:18;;;;;;;14.98;4.90;;;5.30;82.50;;;;;;5052796;28;20021;-75
2021/04/17 05:26:44;;;;;;;9.23;3.83;;;5.30;82.60;;;;;;5051623;28;20021;-75
2021/04/17 05:29:09;;;;;;;12.95;4.40;;;5.40;82.50;;;;;;5035957;28;20032;-75
2021/04/17 05:31:35;;;;;;;9.45;3.40;;;5.40;82.50;;;;;;5051416;28;20013;-75
2021/04/17 05:34:02;;;;;;;11.10;4.88;;;5.50;82.50;;;;;;5050558;28;20020;-76
2021/04/17 05:36:28;;;;;;;8.13;3.65;;;5.50;82.20;;;;;;5052919;28;20025;-76
2021/04/17 05:38:53;;;;;;;9.85;4.57;;;5.60;82.20;;;;;;5051545;28;20021;-75
2021/04/17 05:41:22;;;;;;;8.32;3.90;;;5.60;81.80;;;;;;5051575;28;20021;-75
2021/04/17 05:43:47;;;;;;;8.88;4.32;;;5.70;81.70;;;;;;5052577;28;20021;-75
2021/04/17 05:46:13;;;;;;;10.63;3.75;;;5.70;81.50;;;;;;5051534;28;20070;-75
2021/04/17 05:48:39;;;;;;;12.93;4.72;;;5.80;81.40;;;;;;5052336;28;20445;-76
2021/04/17 05:51:05;;;;;;;13.85;4.82;;;5.80;81.10;;;;;;5052416;28;20017;-75
2021/04/17 05:53:30;;;;;;;12.07;5.63;;;5.80;80.90;;;;;;5052073;28;20029;-75
2021/04/17 05:55:56;;;;;;;8.10;3.50;;;5.90;80.80;;;;;;5051307;28;20071;-74
2021/04/17 05:58:21;;;;;;;9.30;4.05;;;6.00;80.60;;;;;;5051207;28;20473;-75
2021/04/17 06:00:47;;;;;;;12.85;5.28;;;6.10;80.30;;;;;;5052285;28;20066;-75
2021/04/17 06:03:12;;;;;;;11.55;3.70;;;6.20;79.90;;;;;;5052437;28;20021;-75
2021/04/17 06:05:38;;;;;;;10.85;4.60;;;6.20;79.60;;;;;;5050903;28;20020;-75
2021/04/17 06:08:05;;;;;;;6.15;3.55;;;6.30;79.30;;;;;;5052320;28;20047;-75
2021/04/17 06:10:30;;;;;;;6.18;2.67;;;6.40;78.80;;;;;;5051914;28;20465;-75
2021/04/17 06:12:56;;;;;;;11.38;3.50;;;6.50;78.30;;;;;;5052256;28;20090;-76
2021/04/17 06:15:22;;;;;;;8.23;2.78;;;6.60;77.70;;;;;;5051188;28;20021;-75
2021/04/17 06:17:47;;;;;;;7.85;2.78;;;6.70;77.70;;;;;;5052179;28;20579;-74
2021/04/17 06:20:13;;;;;;;7.82;3.90;;;6.80;77.30;;;;;;5052223;28;20017;-75
2021/04/17 06:22:38;;;;;;;14.27;5.20;;;6.80;76.80;;;;;;5051970;28;20025;-76
2021/04/17 06:25:06;;;;;;;6.55;2.30;;;6.90;76.20;;;;;;5052197;28;20357;-76
2021/04/17 06:27:33;;;;;;;7.00;3.50;;;7.00;76.20;;;;;;5050483;28;20033;-75
2021/04/17 06:29:58;;;;;;;10.30;4.25;;;7.20;75.50;;;;;;5052099;28;20013;-75
2021/04/17 06:32:24;;;;;;;5.38;2.20;;;7.20;75.00;;;;;;5050819;28;20028;-75
2021/04/17 06:34:50;;;;;;;5.40;2.25;;;7.20;75.00;;;;;;5051963;28;20098;-75
2021/04/17 06:37:16;;;;;;;11.75;3.55;;;7.40;74.60;;;;;;5052090;28;20017;-76
2021/04/17 06:39:42;;;;;;;9.55;3.63;;;7.40;74.60;;;;;;5050569;28;20368;-74
2021/04/17 06:42:12;;;;;;;6.50;2.78;;;7.50;74.30;;;;;;5050829;28;20446;-76
2021/04/17 06:44:41;;;;;;;;;;;7.60;74.10;;;;;;5052232;28;20032;-75
2021/04/17 06:47:07;;;;;;;5.70;2.65;;;7.70;73.70;;;;;;5055528;28;19901;-76
2021/04/17 06:49:33;;;;;;;2.38;0.75;;;7.80;73.30;;;;;;5055521;28;20017;-75
2021/04/17 06:52:01;;;;;;;6.43;2.28;;;8.00;72.60;;;;;;5055566;28;20029;-75
2021/04/17 06:54:28;;;;;;;7.65;2.38;;;8.10;72.30;;;;;;5055907;28;20091;-75
2021/04/17 06:56:53;;;;;;;7.22;2.10;;;8.30;72.30;;;;;;5054359;28;20111;-75
2021/04/17 06:59:19;;;;;;;4.82;1.40;;;8.40;71.60;;;;;;5055778;28;20452;-75
2021/04/17 07:01:45;;;;;;;9.38;3.28;;;8.50;71.40;;;;;;5055545;28;20024;-76
2021/04/17 07:04:12;;;;;;;7.70;1.80;;;8.70;70.70;;;;;;5054443;28;20358;-75
2021/04/17 07:06:38;;;;;;;8.20;2.60;;;8.90;70.00;;;;;;5055582;28;20024;-75
2021/04/17 07:09:04;;;;;;;7.13;2.58;;;9.10;69.90;;;;;;5055556;28;20029;-75
2021/04/17 07:11:30;;;;;;;4.50;1.55;;;9.20;68.30;;;;;;5054048;28;20017;-76
2021/04/17 07:14:10;;;;;;;9.38;2.55;;;9.40;67.70;;;;;;5055344;28;20055;-76
2021/04/17 07:16:55;;;;;;;8.85;2.00;;;9.40;66.60;;;;;;5053942;28;20186;-76
2021/04/17 07:19:22;;;;;;;4.70;1.10;;;9.60;66.80;;;;;;5055402;28;20029;-76
2021/04/17 07:21:48;;;;;;;5.32;1.88;;;9.70;66.90;;;;;;5055295;28;20024;-76
2021/04/17 07:24:27;;;;;;;8.93;2.50;;;9.90;66.30;;;;;;5055588;28;20090;-76
2021/04/17 07:26:53;;;;;;;7.13;2.40;;;10.00;64.30;;;;;;5053481;28;20488;-76
2021/04/17 07:29:19;;;;;;;4.70;1.42;;;10.10;64.00;;;;;;5055001;28;20024;-76
2021/04/17 07:31:49;;;;;;;5.38;1.52;;;10.30;65.40;;;;;;5053400;28;20025;-76
2021/04/17 07:34:17;;;;;;;6.15;2.53;;;10.40;65.20;;;;;;5054722;28;20025;-75
2021/04/17 07:36:52;;;;;;;6.20;2.10;;;10.50;63.00;;;;;;5053383;28;20106;-76
2021/04/17 07:39:33;;;;;;;5.43;2.38;;;10.70;63.20;;;;;;5054897;28;20048;-76
2021/04/17 07:42:03;;;;;;;5.10;1.35;;;10.80;61.70;;;;;;5053335;28;20017;-76
2021/04/17 07:44:30;;;;;;;;;;;11.00;61.70;;;;;;5053993;28;20181;-76
2021/04/17 07:46:55;;;;;;;2.88;0.90;;;11.00;64.30;;;;;;5054489;28;20295;-76
2021/04/17 07:49:25;;;;;;;3.53;1.10;;;11.10;64.00;;;;;;5054498;28;20494;-75
2021/04/17 07:52:04;;;;;;;3.33;1.10;;;11.20;64.00;;;;;;5053182;28;20017;-76
2021/04/17 07:54:30;;;;;;;3.88;1.42;;;11.30;63.10;;;;;;5054660;28;20445;-75
2021/04/17 07:57:06;;;;;;;8.48;2.25;;;11.40;62.40;;;;;;5053443;28;20013;-75
2021/04/17 07:59:32;;;;;;;4.85;2.15;;;11.50;57.30;;;;;;5053203;28;20032;-76
2021/04/17 08:01:58;;;;;;;2.65;0.82;;;11.70;61.10;;;;;;5054268;28;20099;-76
2021/04/17 08:04:26;;;;;;;2.45;0.70;;;11.90;61.50;;;;;;5054465;28;20025;-76
2021/04/17 08:06:53;;;;;;;7.47;1.83;;;12.10;61.60;;;;;;5054201;28;20025;-76
2021/04/17 08:09:21;;;;;;;5.28;1.20;;;12.30;55.50;;;;;;5054241;28;20064;-75
2021/04/17 08:11:53;;;;;;;5.70;1.98;;;12.30;58.90;;;;;;5053569;28;20066;-75
2021/04/17 08:14:21;;;;;;;6.13;1.80;;;12.50;53.50;;;;;;5054109;28;20012;-76
2021/04/17 08:16:47;;;;;;;7.50;2.33;;;12.70;51.80;;;;;;5054036;28;20024;-76
2021/04/17 08:19:13;;;;;;;3.33;1.00;;;12.90;50.90;;;;;;5054222;28;20052;-75
2021/04/17 08:21:39;;;;;;;7.20;1.70;;;13.10;57.90;;;;;;5053556;28;20063;-76
2021/04/17 08:24:06;;;;;;;3.78;1.17;;;13.30;54.10;;;;;;5053994;28;20067;-76
2021/04/17 08:26:33;;;;;;;4.22;1.23;;;13.40;54.90;;;;;;5052396;28;20365;-76
2021/04/17 08:29:00;;;;;;;7.07;1.88;;;13.40;56.70;;;;;;5053752;28;20021;-76
2021/04/17 08:31:35;;;;;;;3.42;1.20;;;13.40;50.60;;;;;;5053945;28;20028;-76
2021/04/17 08:34:20;;;;;;;3.83;1.38;;;13.40;56.10;;;;;;5053700;28;20469;-76
2021/04/17 08:37:02;;;;;;;4.45;1.60;;;13.60;57.70;;;;;;5053519;28;20033;-77
2021/04/17 08:39:33;;;;;;;5.47;1.45;;;13.70;51.70;;;;;;5052315;28;20016;-76
2021/04/17 08:42:00;;;;;;;4.00;1.00;;;13.90;54.40;;;;;;5053761;28;20027;-76
2021/04/17 08:44:28;;;;;;;6.90;1.80;;;14.10;51.60;;;;;;5053638;28;20017;-76
2021/04/17 08:46:54;;;;;;;4.00;1.30;;;14.30;49.50;;;;;;5052461;28;20032;-75
2021/04/17 08:49:28;;;;;;;5.72;1.40;;;14.40;52.20;;;;;;5053702;28;20553;-75
2021/04/17 08:52:09;;;;;;;3.67;1.30;;;14.40;52.10;;;;;;5053474;28;20021;-75
2021/04/17 08:54:36;;;;;;;5.03;1.10;;;14.60;53.20;;;;;;5052336;28;20032;-75
2021/04/17 08:57:01;;;;;;;8.93;1.88;;;14.60;56.50;;;;;;5053103;28;20074;-76
2021/04/17 08:59:34;;;;;;;8.10;2.17;;;14.70;51.00;;;;;;5053499;28;20103;-76
2021/04/17 09:02:04;;;;;;;5.28;1.42;;;14.80;53.10;;;;;;5051901;28;20017;-75
2021/04/17 09:04:31;;;;;;;3.33;0.90;;;14.90;54.50;;;;;;5053515;28;20343;-75
2021/04/17 09:06:58;;;;;;;2.97;1.15;;;15.00;56.60;;;;;;5053243;28;20017;-75
2021/04/17 09:09:25;;;;;;;6.25;1.73;;;15.00;52.10;;;;;;5052866;28;20028;-75
2021/04/17 09:12:11;;;;;;;11.13;1.83;;;15.10;53.10;;;;;;5052507;28;20115;-75
2021/04/17 09:14:46;;;;;;;5.38;2.13;;;15.30;46.00;;;;;;5055623;28;20107;-74
2021/04/17 09:17:36;;;;;;;9.55;1.92;;;15.50;48.90;;;;;;5051805;28;20128;-75
2021/04/17 09:20:13;;;;;;;5.55;1.70;;;15.60;47.50;;;;;;5053348;28;20033;-75
2021/04/17 09:22:39;;;;;;;8.10;2.05;;;15.80;50.30;;;;;;5051521;28;20484;-75
2021/04/17 09:25:07;;;;;;;6.28;2.13;;;15.90;46.00;;;;;;5052651;28;20073;-75
2021/04/17 09:27:40;;;;;;;1.55;0.70;;;15.90;49.60;;;;;;5052726;28;20453;-75
2021/04/17 09:30:14;;;;;;;1.40;0.60;;;16.10;55.20;;;;;;5052978;28;20030;-74
2021/04/17 09:32:48;;;;;;;1.77;0.55;;;16.10;57.30;;;;;;5052696;28;20028;-74
2021/04/17 09:35:23;;;;;;;3.55;1.00;;;16.20;56.70;;;;;;5051528;28;20017;-74
2021/04/17 09:38:13;;;;;;;7.80;1.40;;;16.30;55.40;;;;;;5052675;28;20020;-75
2021/04/17 09:40:51;;;;;;;4.03;0.98;;;16.40;53.60;;;;;;5054876;28;20029;-74
2021/04/17 09:43:23;;;;;;;4.25;1.45;;;16.60;56.00;;;;;;5051434;28;20070;-76
2021/04/17 09:45:52;;;;;;;6.15;2.15;;;16.80;54.70;;;;;;5052491;28;20021;-75
2021/04/17 09:48:21;;;;;;;4.05;1.10;;;16.90;54.80;;;;;;5052497;28;20025;-74
2021/04/17 09:50:51;;;;;;;2.93;0.70;;;16.70;55.40;;;;;;5050896;28;20114;-74
2021/04/17 09:53:29;;;;;;;1.45;0.88;;;16.50;57.60;;;;;;5052611;28;20290;-75
2021/04/17 09:55:58;;;;;;;3.75;1.20;;;16.30;57.70;;;;;;5052675;28;20020;-75
2021/04/17 09:58:32;;;;;;;2.45;0.85;;;16.30;55.20;;;;;;5054232;28;20091;-75
2021/04/17 10:01:18;;;;;;;7.70;2.65;;;16.10;58.80;;;;;;5054100;28;20013;-75
2021/04/17 10:03:50;;;;;;;3.38;0.70;;;15.90;52.70;;;;;;5052248;28;20037;-75
2021/04/17 10:06:24;;;;;;;1.25;0.47;;;15.70;60.80;;;;;;5051119;28;20013;-75
2021/04/17 10:08:50;;;;;;;1.67;0.50;;;15.50;60.90;;;;;;5051772;28;20108;-75
2021/04/17 10:11:36;;;;;;;2.60;1.15;;;15.40;61.40;;;;;;5052343;28;20111;-75
2021/04/17 10:14:02;;;;;;;4.20;1.15;;;15.40;60.00;;;;;;5052046;28;20037;-75
2021/04/17 10:16:49;;;;;;;1.67;0.68;;;15.60;59.30;;;;;;5052353;28;20025;-76
2021/04/17 10:19:17;;;;;;;5.22;2.25;;;15.90;60.10;;;;;;5050369;28;20036;-76
2021/04/17 10:21:47;;;;;;;1.90;0.77;;;16.30;56.90;;;;;;5051350;28;20028;-77
2021/04/17 10:24:19;;;;;;;5.10;1.48;;;16.20;59.00;;;;;;5052423;28;20096;-77
2021/04/17 10:26:48;;;;;;;5.72;1.45;;;16.30;58.40;;;;;;5051896;28;20025;-77
2021/04/17 10:29:14;;;;;;;4.57;2.00;;;16.50;56.30;;;;;;5052064;28;20036;-75
2021/04/17 10:31:40;;;;;;;4.88;1.75;;;16.80;55.60;;;;;;5050653;28;20033;-75
2021/04/17 10:34:05;;;;;;;7.82;1.73;;;17.00;57.40;;;;;;5051642;28;20017;-75
2021/04/17 10:36:31;;;;;;;3.03;1.05;;;17.30;56.50;;;;;;5052301;28;20017;-75
2021/04/17 10:39:08;;;;;;;9.77;2.28;;;17.50;57.00;;;;;;5051278;28;20021;-75
2021/04/17 10:41:35;;;;;;;5.50;1.85;;;17.80;53.20;;;;;;5050592;28;20017;-75
2021/04/17 10:44:15;;;;;;;9.30;1.95;;;18.10;55.50;;;;;;5051562;28;20116;-75
2021/04/17 10:46:45;;;;;;;4.77;1.87;;;18.30;53.00;;;;;;5050617;28;20246;-75
2021/04/17 10:49:38;;;;;;;8.77;2.10;;;18.50;51.60;;;;;;5051400;28;20549;-75
2021/04/17 10:52:33;;;;;;;7.43;2.40;;;18.70;52.50;;;;;;5052000;28;20056;-75
2021/04/17 10:54:59;;;;;;;7.80;1.90;;;18.50;52.80;;;;;;5051275;28;20100;-75
2021/04/17 10:57:25;;;;;;;7.72;2.00;;;18.40;54.70;;;;;;5050077;28;20124;-76
2021/04/17 10:59:59;;;;;;;5.38;1.80;;;18.30;55.30;;;;;;5051192;28;20044;-75
2021/04/17 11:02:35;;;;;;;11.75;3.10;;;18.30;55.00;;;;;;5051398;28;20021;-76
2021/04/17 11:05:04;;;;;;;7.38;2.65;;;18.50;48.70;;;;;;5049825;28;20126;-77
2021/04/17 11:07:35;;;;;;;8.02;1.88;;;18.80;39.80;;;;;;5051609;28;20100;-75
2021/04/17 11:10:05;;;;;;;7.40;2.03;;;18.80;53.60;;;;;;5050040;28;20029;-77
2021/04/17 11:12:32;;;;;;;6.32;2.00;;;19.00;48.50;;;;;;5051351;28;20041;-79
2021/04/17 11:15:22;;;;;;;9.07;3.15;;;19.30;51.10;;;;;;5050543;28;20017;-76
2021/04/17 11:18:19;;;;;;;5.55;1.98;;;19.40;46.90;;;;;;5052684;28;20025;-77
2021/04/17 11:21:15;;;;;;;7.43;3.10;;;19.30;54.10;;;;;;5050816;28;20028;-79
2021/04/17 11:23:53;;;;;;;6.00;1.50;;;19.50;40.00;;;;;;5056694;28;20112;-79
2021/04/17 11:26:18;;;;;;;7.00;1.60;;;19.60;53.50;;;;;;5049953;28;20013;-80
2021/04/17 11:28:49;;;;;;;6.78;2.03;;;19.80;54.30;;;;;;5051276;28;20078;-79
2021/04/17 11:31:18;;;;;;;11.77;2.75;;;19.70;53.20;;;;;;5049919;28;20088;-80
2021/04/17 11:33:45;;;;;;;7.65;2.03;;;19.30;50.00;;;;;;5052742;28;20107;-80
2021/04/17 11:36:11;;;;;;;6.15;2.00;;;19.10;47.80;;;;;;5053421;28;20039;-77
2021/04/17 11:38:37;;;;;;;6.82;2.25;;;19.10;52.70;;;;;;5054875;28;20071;-78
2021/04/17 11:41:03;;;;;;;7.20;2.35;;;19.10;52.00;;;;;;5053292;28;20115;-77
2021/04/17 11:43:29;;;;;;;4.40;1.45;;;18.70;52.20;;;;;;5053457;28;20366;-76
2021/04/17 11:45:54;;;;;;;7.35;2.00;;;18.40;57.10;;;;;;5053260;28;20021;-77
2021/04/17 11:48:20;;;;;;;6.65;2.53;;;18.50;51.50;;;;;;5053525;28;20182;-77
2021/04/17 11:50:46;;;;;;;6.65;1.30;;;18.80;53.70;;;;;;5053184;28;20021;-78
2021/04/17 11:53:12;;;;;;;8.98;2.17;;;18.60;53.90;;;;;;5053318;28;20021;-77
2021/04/17 11:55:38;;;;;;;9.43;2.00;;;18.20;55.20;;;;;;5054632;28;20025;-76
2021/04/17 11:58:04;;;;;;;6.97;2.30;;;17.90;56.50;;;;;;5054523;28;20338;-77
2021/04/17 12:00:30;;;;;;;6.00;1.90;;;17.60;56.20;;;;;;5053204;28;20017;-76
2021/04/17 12:02:55;;;;;;;6.10;2.63;;;17.30;54.10;;;;;;5054337;28;20024;-78
2021/04/17 12:05:21;;;;;;;7.25;2.42;;;17.60;43.50;;;;;;5054521;28;20021;-78
2021/04/17 12:07:46;;;;;;;4.90;1.25;;;17.90;45.10;;;;;;5054093;28;20044;-77
2021/04/17 12:10:13;;;;;;;7.65;2.55;;;18.40;54.80;;;;;;5054450;28;20052;-76
2021/04/17 12:12:38;;;;;;;7.57;2.92;;;18.70;43.90;;;;;;5053754;28;20045;-77
2021/04/17 12:15:05;;;;;;;4.22;1.20;;;18.80;44.00;;;;;;5052710;28;20032;-79
2021/04/17 12:17:30;;;;;;;5.55;1.77;;;18.80;52.60;;;;;;5052918;28;20021;-77
2021/04/17 12:19:58;;;;;;;6.32;1.75;;;18.60;53.80;;;;;;5052687;28;20420;-78
2021/04/17 12:22:25;;;;;;;6.97;2.38;;;18.70;53.60;;;;;;5052942;28;20013;-76
2021/04/17 12:24:50;;;;;;;6.35;2.25;;;19.00;48.60;;;;;;5053789;28;20029;-75
2021/04/17 12:27:16;;;;;;;7.53;2.65;;;19.20;46.40;;;;;;5053989;28;20017;-75
2021/04/17 12:29:41;;;;;;;11.90;2.38;;;19.40;48.80;;;;;;5053602;28;20075;-76
2021/04/17 12:32:07;;;;;;;7.18;1.90;;;19.50;46.50;;;;;;5052794;28;20369;-77
2021/04/17 12:34:33;;;;;;;6.03;2.20;;;19.30;51.80;;;;;;5054085;28;20017;-77
2021/04/17 12:37:00;;;;;;;4.50;1.80;;;18.80;51.80;;;;;;5053450;28;20070;-77
2021/04/17 12:39:25;;;;;;;6.60;2.55;;;18.40;53.30;;;;;;5052286;28;20017;-78
2021/04/17 12:41:51;;;;;;;8.07;3.05;;;18.40;44.50;;;;;;5053378;28;20028;-78
2021/04/17 12:44:16;;;;;;;5.93;1.80;;;18.80;46.80;;;;;;5053309;28;20017;-75
2021/04/17 12:46:42;;;;;;;8.23;3.30;;;18.80;53.30;;;;;;5053678;28;20051;-77
2021/04/17 12:49:07;;;;;;;4.68;2.08;;;18.60;48.10;;;;;;5053353;28;20021;-76
2021/04/17 12:51:33;;;;;;;4.80;1.52;;;18.30;52.50;;;;;;5052353;28;20076;-75
2021/04/17 12:53:59;;;;;;;4.05;1.00;;;18.20;55.00;;;;;;5052074;28;20024;-76
2021/04/17 12:56:25;;;;;;;4.93;1.30;;;18.50;55.20;;;;;;5053676;28;20016;-77